createdAt,value
2017-07-29T00:01:17.169Z,82.00
2017-07-29T00:03:44.725Z,82.20
2017-07-29T00:06:12.315Z,82.40
2017-07-29T00:08:39.787Z,82.30
2017-07-29T00:11:07.379Z,82.40
2017-07-29T00:13:34.870Z,82.60
2017-07-29T00:16:02.424Z,82.90
2017-07-29T00:18:29.957Z,83.00
2017-07-29T00:20:58.229Z,82.00
2017-07-29T00:23:26.493Z,82.30
2017-07-29T00:25:54.811Z,82.70
2017-07-29T00:28:22.300Z,82.70
2017-07-29T00:30:49.814Z,82.60
2017-07-29T00:33:17.307Z,81.90
2017-07-29T00:35:44.797Z,82.80
2017-07-29T00:38:13.103Z,82.90
2017-07-29T00:40:40.598Z,82.00
2017-07-29T00:43:08.117Z,82.60
2017-07-29T00:45:35.744Z,83.30
2017-07-29T00:48:03.253Z,83.70
2017-07-29T00:50:30.753Z,83.20
2017-07-29T00:52:58.233Z,83.30
2017-07-29T00:55:25.729Z,83.70
2017-07-29T00:57:53.216Z,83.70
2017-07-29T01:00:20.716Z,83.70
2017-07-29T01:02:48.268Z,83.90
2017-07-29T01:05:15.767Z,84.00
2017-07-29T01:07:43.275Z,84.00
2017-07-29T01:10:10.772Z,83.90
2017-07-29T01:12:38.270Z,84.10
2017-07-29T01:15:05.772Z,84.60
2017-07-29T01:17:34.173Z,83.90
2017-07-29T01:20:01.671Z,84.50
2017-07-29T01:22:29.261Z,84.60
2017-07-29T01:24:56.743Z,83.60
2017-07-29T01:27:24.283Z,84.10
2017-07-29T01:29:51.865Z,83.80
2017-07-29T01:32:19.383Z,84.00
2017-07-29T01:34:46.881Z,83.40
2017-07-29T01:37:15.141Z,82.40
2017-07-29T01:39:43.409Z,82.10
2017-07-29T01:42:10.911Z,82.80
2017-07-29T01:44:38.422Z,82.30
2017-07-29T01:47:05.900Z,82.80
2017-07-29T01:49:33.390Z,83.00
2017-07-29T01:52:00.905Z,83.30
2017-07-29T01:54:28.414Z,82.90
2017-07-29T01:56:55.902Z,82.40
2017-07-29T01:59:23.404Z,82.70
2017-07-29T02:01:50.907Z,82.60
2017-07-29T02:04:18.399Z,82.20
2017-07-29T02:06:45.894Z,81.60
2017-07-29T02:09:13.378Z,81.70
2017-07-29T02:11:40.889Z,82.20
2017-07-29T02:14:08.391Z,82.60
2017-07-29T02:16:35.872Z,82.40
2017-07-29T02:19:03.368Z,81.30
2017-07-29T02:21:30.895Z,82.00
2017-07-29T02:23:58.396Z,81.80
2017-07-29T02:26:25.887Z,81.40
2017-07-29T02:28:53.481Z,79.70
2017-07-29T02:31:20.983Z,80.40
2017-07-29T02:33:48.481Z,80.30
2017-07-29T02:36:16.007Z,80.20
2017-07-29T02:38:43.514Z,80.00
2017-07-29T02:41:11.005Z,80.50
2017-07-29T02:43:38.511Z,80.80
2017-07-29T02:46:06.027Z,79.70
2017-07-29T02:48:33.527Z,78.50
2017-07-29T02:51:01.031Z,79.00
2017-07-29T02:53:28.542Z,79.20
2017-07-29T02:55:56.193Z,78.70
2017-07-29T02:58:23.678Z,78.10
2017-07-29T03:00:51.165Z,77.80
2017-07-29T03:03:18.670Z,78.40
2017-07-29T03:05:46.154Z,78.60
2017-07-29T03:08:13.660Z,79.40
2017-07-29T03:10:41.162Z,79.80
2017-07-29T03:13:08.676Z,79.90
2017-07-29T03:15:36.993Z,79.30
2017-07-29T03:18:04.517Z,79.30
2017-07-29T03:20:32.014Z,79.30
2017-07-29T03:22:59.534Z,79.70
2017-07-29T03:25:27.780Z,79.90
2017-07-29T03:27:55.276Z,79.80
2017-07-29T03:30:22.771Z,79.40
2017-07-29T03:32:50.305Z,79.70
2017-07-29T03:35:17.817Z,80.10
2017-07-29T03:37:45.311Z,79.70
2017-07-29T03:40:12.824Z,80.00
2017-07-29T03:42:40.310Z,79.80
2017-07-29T03:45:07.822Z,79.40
2017-07-29T03:47:35.310Z,79.80
2017-07-29T03:50:02.863Z,80.30
2017-07-29T03:52:30.384Z,80.40
2017-07-29T03:54:57.874Z,80.20
2017-07-29T03:57:25.376Z,79.40
2017-07-29T03:59:52.876Z,79.50
2017-07-29T04:02:20.367Z,80.20
2017-07-29T04:04:47.893Z,80.20
2017-07-29T04:07:15.399Z,79.90
2017-07-29T04:09:43.667Z,79.50
2017-07-29T04:12:11.270Z,79.50
2017-07-29T04:14:38.784Z,79.50
2017-07-29T04:17:06.308Z,80.10
2017-07-29T04:19:33.836Z,79.60
2017-07-29T04:22:01.425Z,80.00
2017-07-29T04:24:28.920Z,79.70
2017-07-29T04:26:56.408Z,79.60
2017-07-29T04:29:24.028Z,79.20
2017-07-29T04:31:51.507Z,79.00
2017-07-29T04:34:18.998Z,79.30
2017-07-29T04:36:46.499Z,79.80
2017-07-29T04:39:13.969Z,80.10
2017-07-29T04:41:41.477Z,79.30
2017-07-29T04:44:08.970Z,79.80
2017-07-29T04:46:36.525Z,79.90
2017-07-29T04:49:04.159Z,79.30
2017-07-29T04:51:31.790Z,79.70
2017-07-29T04:53:59.455Z,79.80
2017-07-29T04:56:26.946Z,79.20
2017-07-29T04:58:54.450Z,78.50
2017-07-29T05:01:21.937Z,78.90
2017-07-29T05:03:49.459Z,79.20
2017-07-29T05:06:16.951Z,79.20
2017-07-29T05:08:44.502Z,79.20
2017-07-29T05:11:12.751Z,80.70
2017-07-29T05:13:40.238Z,79.70
2017-07-29T05:16:08.484Z,80.20
2017-07-29T05:18:35.991Z,79.60
2017-07-29T05:21:03.472Z,80.40
2017-07-29T05:23:30.969Z,80.80
2017-07-29T05:25:58.468Z,80.00
2017-07-29T05:28:26.037Z,79.30
2017-07-29T05:30:53.508Z,79.80
2017-07-29T05:33:21.041Z,79.90
2017-07-29T05:35:48.561Z,80.70
2017-07-29T05:38:16.054Z,80.60
2017-07-29T05:40:44.361Z,80.80
2017-07-29T05:43:11.858Z,80.80
2017-07-29T05:45:39.341Z,80.90
2017-07-29T05:48:06.853Z,80.80
2017-07-29T05:50:34.465Z,79.90
2017-07-29T05:53:02.117Z,80.20
2017-07-29T05:55:29.602Z,80.40
2017-07-29T05:57:57.126Z,80.50
2017-07-29T06:00:24.636Z,80.60
2017-07-29T06:02:52.138Z,80.40
2017-07-29T06:05:19.630Z,80.30
2017-07-29T06:07:47.138Z,79.30
2017-07-29T06:10:14.928Z,79.40
2017-07-29T06:12:42.436Z,79.10
2017-07-29T06:15:10.101Z,79.80
2017-07-29T06:17:37.592Z,79.30
2017-07-29T06:20:05.131Z,79.70
2017-07-29T06:22:32.642Z,79.40
2017-07-29T06:25:00.144Z,78.90
2017-07-29T06:27:27.641Z,79.20
2017-07-29T06:29:55.892Z,78.70
2017-07-29T06:32:23.493Z,78.60
2017-07-29T06:34:51.031Z,79.30
2017-07-29T06:37:18.533Z,78.90
2017-07-29T06:39:46.790Z,78.90
2017-07-29T06:42:15.038Z,79.10
2017-07-29T06:44:42.518Z,79.00
2017-07-29T06:47:09.997Z,79.70
2017-07-29T06:49:37.562Z,80.60
2017-07-29T06:52:05.078Z,79.80
2017-07-29T06:54:32.574Z,79.90
2017-07-29T06:57:00.867Z,79.30
2017-07-29T06:59:28.419Z,79.20
2017-07-29T07:01:55.929Z,79.60
2017-07-29T07:04:23.444Z,79.60
2017-07-29T07:06:50.942Z,79.60
2017-07-29T07:09:18.447Z,79.10
2017-07-29T07:11:45.943Z,79.00
2017-07-29T07:14:13.446Z,78.90
2017-07-29T07:16:40.949Z,78.30
2017-07-29T07:19:08.472Z,78.00
2017-07-29T07:21:35.994Z,77.40
2017-07-29T07:24:03.492Z,77.20
2017-07-29T07:26:31.763Z,76.50
2017-07-29T07:28:59.230Z,76.40
2017-07-29T07:31:27.504Z,77.40
2017-07-29T07:33:55.778Z,77.80
2017-07-29T07:36:24.063Z,78.00
2017-07-29T07:38:52.342Z,76.40
2017-07-29T07:41:20.607Z,76.50
2017-07-29T07:43:48.886Z,76.80
2017-07-29T07:46:17.334Z,77.00
2017-07-29T07:48:44.840Z,76.50
2017-07-29T07:51:12.389Z,76.50
2017-07-29T07:53:39.896Z,76.20
2017-07-29T07:56:07.409Z,75.80
2017-07-29T07:58:35.673Z,76.80
2017-07-29T08:01:03.176Z,76.80
2017-07-29T08:03:30.682Z,76.50
2017-07-29T08:05:58.213Z,76.50
2017-07-29T08:08:25.718Z,76.20
2017-07-29T08:10:53.966Z,74.60
2017-07-29T08:13:21.444Z,74.60
2017-07-29T08:15:49.728Z,74.20
2017-07-29T08:18:17.996Z,73.10
2017-07-29T08:20:45.607Z,73.10
2017-07-29T08:23:13.095Z,72.90
2017-07-29T08:25:40.594Z,72.30
2017-07-29T08:28:08.843Z,71.40
2017-07-29T08:30:36.357Z,71.30
2017-07-29T08:33:03.862Z,72.30
2017-07-29T08:35:31.360Z,72.20
2017-07-29T08:37:58.905Z,69.50
2017-07-29T08:40:27.157Z,71.60
2017-07-29T08:42:54.655Z,71.60
2017-07-29T08:45:22.161Z,71.70
2017-07-29T08:47:50.262Z,71.70
2017-07-29T08:50:17.757Z,70.90
2017-07-29T08:52:45.253Z,70.20
2017-07-29T08:55:12.755Z,70.00
2017-07-29T08:57:40.261Z,69.90
2017-07-29T09:00:07.822Z,69.60
2017-07-29T09:02:35.294Z,68.40
2017-07-29T09:05:02.796Z,67.60
2017-07-29T09:07:30.316Z,66.30
2017-07-29T09:09:57.799Z,64.70
2017-07-29T09:12:25.282Z,64.50
2017-07-29T09:14:52.786Z,64.30
2017-07-29T09:17:20.306Z,65.50
2017-07-29T09:19:47.827Z,64.60
2017-07-29T09:22:15.316Z,66.30
2017-07-29T09:24:42.809Z,65.30
2017-07-29T09:27:10.333Z,65.00
2017-07-29T09:29:37.838Z,63.10
2017-07-29T09:32:05.341Z,64.00
2017-07-29T09:34:32.824Z,64.90
2017-07-29T09:37:00.347Z,64.40
2017-07-29T09:39:28.651Z,64.30
2017-07-29T09:41:56.136Z,64.30
2017-07-29T09:44:23.617Z,61.30
2017-07-29T09:46:51.118Z,59.20
2017-07-29T09:49:18.714Z,58.50
2017-07-29T09:51:46.214Z,58.90
2017-07-29T09:54:13.727Z,58.50
2017-07-29T09:56:41.225Z,58.10
2017-07-29T09:59:08.739Z,58.20
2017-07-29T10:01:36.232Z,57.80
2017-07-29T10:04:03.743Z,57.40
2017-07-29T10:06:31.266Z,56.90
2017-07-29T10:08:58.780Z,56.00
2017-07-29T10:11:26.326Z,55.60
2017-07-29T10:13:53.850Z,55.50
2017-07-29T10:16:22.147Z,55.90
2017-07-29T10:18:49.636Z,55.40
2017-07-29T10:21:17.154Z,54.70
2017-07-29T10:23:44.680Z,55.20
2017-07-29T10:26:12.210Z,53.30
2017-07-29T10:28:39.737Z,52.50
2017-07-29T10:31:07.265Z,53.10
2017-07-29T10:33:34.780Z,53.20
2017-07-29T10:36:02.329Z,52.20
2017-07-29T10:38:29.828Z,51.80
2017-07-29T10:40:57.330Z,51.40
2017-07-29T10:43:25.608Z,50.40
2017-07-29T10:45:53.881Z,49.90
2017-07-29T10:48:22.141Z,47.80
2017-07-29T10:50:49.648Z,47.80
2017-07-29T10:53:17.131Z,46.60
2017-07-29T10:55:44.628Z,44.50
2017-07-29T10:58:12.140Z,45.70
2017-07-29T11:00:39.643Z,47.60
2017-07-29T11:03:07.169Z,49.50
2017-07-29T11:05:34.669Z,50.60
2017-07-29T11:08:02.170Z,50.90
2017-07-29T11:10:29.670Z,50.40
2017-07-29T11:12:57.306Z,50.70
2017-07-29T11:15:24.822Z,50.40
2017-07-29T11:17:52.349Z,51.50
2017-07-29T11:20:19.868Z,51.40
2017-07-29T11:22:47.383Z,51.90
2017-07-29T11:25:15.660Z,53.20
2017-07-29T11:27:44.077Z,53.40
2017-07-29T11:30:11.613Z,53.40
2017-07-29T11:32:39.247Z,53.20
2017-07-29T11:35:06.737Z,52.80
2017-07-29T11:37:34.254Z,52.50
2017-07-29T11:40:01.792Z,52.50
2017-07-29T11:42:29.314Z,52.30
2017-07-29T11:44:56.821Z,51.80
2017-07-29T11:47:24.334Z,51.30
2017-07-29T11:49:51.865Z,50.10
2017-07-29T11:52:19.388Z,50.10
2017-07-29T11:54:46.916Z,49.80
2017-07-29T11:57:14.489Z,49.60
2017-07-29T11:59:42.026Z,45.70
2017-07-29T12:02:09.539Z,42.00
2017-07-29T12:04:37.078Z,41.40
2017-07-29T12:07:04.629Z,43.20
2017-07-29T12:09:32.109Z,44.10
2017-07-29T12:11:59.628Z,42.30
2017-07-29T12:14:27.127Z,41.30
2017-07-29T12:16:54.616Z,41.60
2017-07-29T12:19:22.123Z,42.80
2017-07-29T12:21:49.641Z,43.10
2017-07-29T12:24:17.958Z,44.10
2017-07-29T12:26:45.471Z,43.90
2017-07-29T12:29:13.004Z,45.00
2017-07-29T12:31:40.495Z,46.00
2017-07-29T12:34:08.754Z,44.20
2017-07-29T12:36:36.251Z,43.60
2017-07-29T12:39:03.752Z,42.30
2017-07-29T12:41:33.415Z,40.70
2017-07-29T12:44:04.191Z,39.20
2017-07-29T12:46:33.876Z,38.80
2017-07-29T12:49:03.650Z,37.70
2017-07-29T12:51:32.344Z,36.60
2017-07-29T12:54:02.566Z,36.80
2017-07-29T12:56:33.749Z,37.90
2017-07-29T12:59:03.184Z,37.10
2017-07-29T13:01:33.450Z,36.90
2017-07-29T13:04:03.334Z,38.20
2017-07-29T13:06:30.850Z,39.10
2017-07-29T13:08:58.388Z,38.40
2017-07-29T13:11:26.759Z,40.00
2017-07-29T13:13:54.309Z,40.00
2017-07-29T13:16:22.735Z,39.90
2017-07-29T13:18:50.236Z,39.70
2017-07-29T13:21:17.765Z,37.70
2017-07-29T13:23:45.602Z,37.70
2017-07-29T13:26:13.129Z,39.00
2017-07-29T13:28:40.620Z,39.90
2017-07-29T13:31:08.243Z,41.60
2017-07-29T13:36:12.636Z,42.00
2017-07-29T13:38:40.122Z,42.60
2017-07-29T13:41:07.652Z,44.00
2017-07-29T13:43:35.155Z,44.80
2017-07-29T13:46:02.679Z,45.70
2017-07-29T13:48:30.257Z,45.20
2017-07-29T13:50:57.802Z,46.10
2017-07-29T13:53:25.311Z,44.90
2017-07-29T13:55:53.561Z,46.00
2017-07-29T13:58:21.083Z,45.60
2017-07-29T14:00:48.577Z,44.20
2017-07-29T14:03:16.076Z,42.00
2017-07-29T14:05:43.580Z,41.60
2017-07-29T14:08:11.090Z,41.80
2017-07-29T14:10:39.409Z,44.80
2017-07-29T14:13:06.938Z,44.10
2017-07-29T14:15:34.518Z,44.50
2017-07-29T14:18:02.049Z,45.00
2017-07-29T14:20:29.969Z,46.00
2017-07-29T14:22:57.493Z,45.80
2017-07-29T14:25:25.057Z,46.10
2017-07-29T14:27:52.741Z,46.40
2017-07-29T14:30:20.365Z,47.40
2017-07-29T14:32:47.875Z,47.70
2017-07-29T14:35:15.389Z,48.40
2017-07-29T14:37:43.822Z,47.20
2017-07-29T14:40:11.392Z,47.20
2017-07-29T14:42:38.885Z,48.20
2017-07-29T14:45:06.401Z,48.40
2017-07-29T14:47:33.928Z,48.40
2017-07-29T14:50:03.226Z,48.50
2017-07-29T14:52:32.534Z,49.00
2017-07-29T14:55:00.025Z,49.20
2017-07-29T14:57:27.529Z,49.90
2017-07-29T14:59:55.218Z,50.30
2017-07-29T15:02:22.818Z,50.30
2017-07-29T15:04:50.337Z,49.90
2017-07-29T15:07:17.828Z,49.90
2017-07-29T15:09:45.362Z,49.10
2017-07-29T15:12:12.857Z,48.90
2017-07-29T15:14:40.399Z,49.40
2017-07-29T15:17:08.061Z,49.40
2017-07-29T15:19:35.543Z,49.90
2017-07-29T15:22:03.080Z,50.40
2017-07-29T15:24:30.587Z,50.80
2017-07-29T15:26:58.224Z,50.00
2017-07-29T15:29:25.732Z,49.60
2017-07-29T15:31:53.257Z,49.90
2017-07-29T15:34:20.786Z,49.60
2017-07-29T15:36:48.274Z,50.10
2017-07-29T15:39:15.801Z,50.00
2017-07-29T15:41:43.351Z,50.40
2017-07-29T15:44:10.867Z,51.10
2017-07-29T15:46:38.372Z,50.90
2017-07-29T15:49:05.871Z,49.10
2017-07-29T15:51:34.133Z,46.90
2017-07-29T15:54:01.683Z,46.90
2017-07-29T15:56:29.194Z,47.00
2017-07-29T15:58:56.839Z,44.40
2017-07-29T16:01:24.396Z,43.10
2017-07-29T16:03:52.707Z,43.90
2017-07-29T16:06:20.207Z,43.90
2017-07-29T16:08:47.761Z,44.10
2017-07-29T16:11:15.384Z,45.40
2017-07-29T16:13:42.915Z,45.30
2017-07-29T16:16:11.179Z,45.00
2017-07-29T16:18:39.844Z,45.00
2017-07-29T16:21:07.478Z,45.00
2017-07-29T16:23:34.992Z,45.40
2017-07-29T16:26:03.270Z,45.30
2017-07-29T16:28:31.586Z,45.70
2017-07-29T16:30:59.109Z,45.70
2017-07-29T16:33:26.642Z,46.80
2017-07-29T16:35:54.158Z,48.00
2017-07-29T16:38:21.667Z,48.70
2017-07-29T16:40:49.383Z,49.50
2017-07-29T16:43:16.891Z,50.60
2017-07-29T16:45:44.412Z,50.90
2017-07-29T16:48:11.933Z,51.20
2017-07-29T16:50:39.459Z,50.90
2017-07-29T16:53:06.950Z,50.60
2017-07-29T16:55:35.310Z,51.50
2017-07-29T16:58:02.829Z,51.50
2017-07-29T17:00:30.408Z,51.70
2017-07-29T17:02:57.950Z,51.30
2017-07-29T17:05:25.452Z,51.80
2017-07-29T17:07:53.777Z,52.00
2017-07-29T17:10:21.337Z,51.30
2017-07-29T17:12:48.853Z,51.70
2017-07-29T17:15:17.122Z,52.20
2017-07-29T17:17:44.620Z,52.20
2017-07-29T17:20:12.116Z,52.30
2017-07-29T17:22:39.666Z,52.80
2017-07-29T17:25:07.312Z,52.90
2017-07-29T17:27:34.815Z,53.20
2017-07-29T17:30:02.293Z,53.60
2017-07-29T17:32:30.635Z,54.10
2017-07-29T17:34:58.140Z,54.00
2017-07-29T17:37:25.632Z,53.60
2017-07-29T17:39:53.162Z,53.70
2017-07-29T17:42:20.671Z,53.90
2017-07-29T17:44:48.348Z,54.30
2017-07-29T17:47:15.901Z,54.40
2017-07-29T17:49:43.387Z,54.80
2017-07-29T17:52:11.648Z,54.90
2017-07-29T17:54:39.155Z,54.90
2017-07-29T17:57:06.709Z,54.80
2017-07-29T17:59:34.203Z,55.20
2017-07-29T18:02:01.711Z,55.30
2017-07-29T18:04:30.011Z,55.80
2017-07-29T18:06:57.521Z,55.80
2017-07-29T18:09:25.002Z,56.00
2017-07-29T18:11:52.500Z,56.10
2017-07-29T18:14:20.116Z,56.20
2017-07-29T18:16:47.611Z,56.20
2017-07-29T18:19:15.112Z,56.40
2017-07-29T18:21:42.632Z,56.40
2017-07-29T18:24:10.143Z,56.40
2017-07-29T18:26:37.638Z,56.90
2017-07-29T18:29:05.157Z,56.40
2017-07-29T18:31:32.667Z,56.40
2017-07-29T18:34:00.174Z,57.00
2017-07-29T18:36:27.684Z,57.00
2017-07-29T18:38:55.168Z,56.90
2017-07-29T18:41:22.687Z,56.80
2017-07-29T18:43:50.195Z,56.80
2017-07-29T18:46:17.686Z,57.00
2017-07-29T18:48:45.342Z,57.30
2017-07-29T18:51:12.853Z,57.60
2017-07-29T18:53:40.371Z,57.70
2017-07-29T18:56:08.665Z,57.80
2017-07-29T18:58:36.180Z,57.80
2017-07-29T19:01:03.714Z,57.90
2017-07-29T19:03:31.278Z,57.60
2017-07-29T19:05:58.791Z,57.70
2017-07-29T19:08:26.324Z,57.80
2017-07-29T19:10:54.101Z,58.00
2017-07-29T19:13:21.606Z,58.30
2017-07-29T19:15:49.120Z,59.20
2017-07-29T19:18:17.387Z,59.60
2017-07-29T19:20:44.940Z,59.50
2017-07-29T19:23:12.456Z,60.00
2017-07-29T19:25:39.964Z,60.20
2017-07-29T19:28:07.519Z,60.30
2017-07-29T19:30:35.029Z,60.40
2017-07-29T19:33:03.046Z,59.50
2017-07-29T19:35:30.566Z,59.00
2017-07-29T19:37:58.086Z,60.20
2017-07-29T19:40:26.439Z,61.40
2017-07-29T19:42:53.947Z,61.40
2017-07-29T19:45:21.468Z,61.90
2017-07-29T19:47:49.092Z,62.20
2017-07-29T19:50:16.631Z,62.50
2017-07-29T19:52:44.158Z,60.70
2017-07-29T19:55:12.500Z,60.00
2017-07-29T19:57:40.003Z,60.30
2017-07-29T20:00:08.297Z,61.50
2017-07-29T20:02:35.826Z,61.40
2017-07-29T20:05:03.351Z,61.40
2017-07-29T20:07:30.865Z,60.40
2017-07-29T20:09:59.139Z,60.90
2017-07-29T20:12:27.433Z,61.20
2017-07-29T20:14:54.966Z,61.10
2017-07-29T20:17:22.449Z,61.70
2017-07-29T20:19:49.965Z,62.70
2017-07-29T20:22:17.493Z,62.60
2017-07-29T20:24:45.020Z,63.20
2017-07-29T20:27:12.515Z,64.00
2017-07-29T20:29:40.045Z,64.60
2017-07-29T20:32:07.603Z,64.60
2017-07-29T20:34:35.132Z,65.00
2017-07-29T20:37:02.653Z,65.10
2017-07-29T20:39:30.179Z,65.60
2017-07-29T20:41:57.708Z,66.00
2017-07-29T20:44:25.217Z,66.40
2017-07-29T20:46:52.734Z,66.10
2017-07-29T20:49:20.258Z,66.60
2017-07-29T20:51:47.800Z,67.20
2017-07-29T20:54:15.334Z,67.30
2017-07-29T20:56:42.974Z,67.90
2017-07-29T20:59:10.480Z,68.30
2017-07-29T21:01:38.031Z,68.30
2017-07-29T21:04:05.547Z,69.40
2017-07-29T21:06:33.090Z,69.70
2017-07-29T21:09:00.648Z,69.90
2017-07-29T21:11:28.147Z,70.40
2017-07-29T21:13:55.701Z,69.90
2017-07-29T21:16:24.042Z,70.70
2017-07-29T21:18:51.535Z,70.50
2017-07-29T21:21:19.052Z,71.00
2017-07-29T21:23:46.577Z,71.60
2017-07-29T21:26:14.100Z,72.10
2017-07-29T21:28:41.619Z,72.30
2017-07-29T21:31:09.225Z,72.80
2017-07-29T21:33:36.791Z,72.90
2017-07-29T21:36:04.287Z,73.00
2017-07-29T21:38:31.911Z,73.20
2017-07-29T21:40:59.424Z,73.50
2017-07-29T21:43:27.031Z,73.50
2017-07-29T21:45:54.578Z,73.80
2017-07-29T21:48:22.110Z,74.60
2017-07-29T21:50:54.354Z,74.80
2017-07-29T21:53:21.911Z,74.80
2017-07-29T21:55:49.477Z,75.20
2017-07-29T21:58:17.004Z,75.30
2017-07-29T22:00:44.553Z,75.70
2017-07-29T22:03:13.062Z,75.80
2017-07-29T22:05:40.561Z,75.80
2017-07-29T22:08:08.106Z,75.90
2017-07-29T22:10:35.692Z,75.90
2017-07-29T22:13:03.186Z,76.50
2017-07-29T22:15:30.796Z,76.70
2017-07-29T22:17:58.874Z,76.80
2017-07-29T22:20:26.404Z,76.70
2017-07-29T22:22:54.800Z,76.60
2017-07-29T22:25:22.372Z,76.90
2017-07-29T22:27:49.981Z,77.40
2017-07-29T22:30:18.705Z,76.90
2017-07-29T22:32:46.314Z,77.60
2017-07-29T22:35:13.844Z,77.20
2017-07-29T22:37:41.386Z,77.50
2017-07-29T22:40:08.909Z,78.00
2017-07-29T22:42:36.419Z,77.60
2017-07-29T22:45:03.914Z,78.60
2017-07-29T22:47:31.419Z,78.40
2017-07-29T22:49:58.938Z,78.50
2017-07-29T22:52:26.426Z,78.70
2017-07-29T22:54:53.930Z,79.60
2017-07-29T22:57:21.573Z,78.90
2017-07-29T22:59:49.140Z,79.00
2017-07-29T23:02:16.719Z,79.10
2017-07-29T23:04:44.289Z,79.30
2017-07-29T23:07:11.828Z,79.40
2017-07-29T23:09:39.384Z,80.20
2017-07-29T23:12:06.907Z,80.40
2017-07-29T23:14:34.466Z,79.90
2017-07-29T23:17:01.974Z,80.40
2017-07-29T23:19:29.478Z,80.60
2017-07-29T23:21:57.015Z,80.10
2017-07-29T23:24:24.489Z,81.10
2017-07-29T23:26:52.750Z,81.30
2017-07-29T23:29:20.252Z,81.20
2017-07-29T23:31:47.771Z,81.80
2017-07-29T23:34:15.288Z,82.00
2017-07-29T23:36:42.779Z,82.30
2017-07-29T23:39:10.375Z,82.60
2017-07-29T23:41:37.929Z,82.30
2017-07-29T23:44:06.194Z,82.60
2017-07-29T23:46:34.504Z,82.40
2017-07-29T23:49:02.007Z,82.20
2017-07-29T23:51:29.515Z,82.50
2017-07-29T23:53:57.150Z,82.50
2017-07-29T23:56:24.676Z,82.90
2017-07-29T23:58:52.192Z,82.70
